Time;durP1;ratioP1;P1;durP2;ratioP2;P2;SDS_P1;SDS_P2;PMS_P1;PMS_P2;Temp;Humidity;BMP_temperature;BMP_pressure;BME280_temperature;BME280_humidity;BME280_pressure;Samples;Min_cycle;Max_cycle;Signal;HPM_P1;HPM_P2
2023/04/13 00:00:11;;;;;;;3.50;3.13;;;6.50;99.90;;;;;;6096072;23;92338;-76
2023/04/13 00:02:38;;;;;;;3.67;3.38;;;6.50;99.90;;;;;;6069753;23;92483;-76
2023/04/13 00:05:08;;;;;;;4.53;3.50;;;6.50;99.90;;;;;;6094047;23;95588;-76
2023/04/13 00:07:39;;;;;;;4.25;3.17;;;6.50;99.90;;;;;;6095332;23;96011;-76
2023/04/13 00:10:10;;;;;;;3.42;3.13;;;6.60;99.90;;;;;;6069878;23;92430;-76
2023/04/13 00:12:39;;;;;;;3.80;3.22;;;6.60;99.90;;;;;;6069558;23;92552;-76
2023/04/13 00:15:07;;;;;;;5.47;3.20;;;6.60;99.90;;;;;;6021629;23;94329;-76
2023/04/13 00:17:34;;;;;;;6.88;3.95;;;6.70;99.90;;;;;;6069064;23;94464;-76
2023/04/13 00:20:06;;;;;;;4.85;3.45;;;6.80;99.90;;;;;;6069523;23;92451;-76
2023/04/13 00:22:33;;;;;;;4.30;3.53;;;6.90;99.90;;;;;;6070177;23;91627;-76
2023/04/13 00:25:00;;;;;;;5.80;3.40;;;7.00;99.90;;;;;;6044705;23;95788;-76
2023/04/13 00:27:29;;;;;;;3.65;3.15;;;7.10;99.90;;;;;;6095752;23;93216;-76
2023/04/13 00:29:58;;;;;;;3.47;3.08;;;7.20;99.90;;;;;;6094586;23;95168;-75
2023/04/13 00:32:25;;;;;;;3.88;3.20;;;7.20;99.90;;;;;;6069638;23;92448;-76
2023/04/13 00:34:52;;;;;;;3.70;3.15;;;7.30;99.90;;;;;;6095102;23;93434;-76
2023/04/13 00:37:20;;;;;;;3.88;3.42;;;7.30;99.90;;;;;;6095560;23;92925;-76
2023/04/13 00:39:47;;;;;;;3.10;2.90;;;7.40;99.90;;;;;;6095562;23;92344;-76
2023/04/13 00:42:17;;;;;;;3.72;3.28;;;7.40;99.90;;;;;;6069386;23;92525;-76
2023/04/13 00:44:44;;;;;;;3.85;3.28;;;7.40;99.90;;;;;;6068580;23;95888;-76
2023/04/13 00:47:12;;;;;;;4.40;2.97;;;7.50;99.90;;;;;;6095967;23;92674;-76
2023/04/13 00:49:39;;;;;;;3.92;2.97;;;7.60;99.90;;;;;;6069200;23;92496;-76
2023/04/13 00:52:09;;;;;;;4.75;3.10;;;7.60;99.90;;;;;;6095627;23;92498;-76
2023/04/13 00:54:37;;;;;;;5.07;2.92;;;7.70;99.90;;;;;;6067103;23;98129;-76
2023/04/13 00:57:06;;;;;;;3.45;2.90;;;7.70;99.90;;;;;;6069508;23;94773;-76
2023/04/13 00:59:33;;;;;;;2.97;2.70;;;7.70;99.90;;;;;;6045121;23;92415;-76
2023/04/13 01:02:03;;;;;;;3.10;2.80;;;7.70;99.90;;;;;;6021271;23;92408;-76
2023/04/13 01:04:32;;;;;;;3.28;2.78;;;7.70;99.90;;;;;;6095365;23;93069;-76
2023/04/13 01:07:26;;;;;;;3.13;2.83;;;7.70;99.90;;;;;;6069305;23;92378;-76
2023/04/13 01:10:15;;;;;;;2.47;2.28;;;7.80;99.90;;;;;;6069372;23;92632;-76
2023/04/13 01:12:50;;;;;;;3.13;2.88;;;7.80;99.90;;;;;;6069164;23;91748;-76
2023/04/13 01:15:18;;;;;;;3.30;3.00;;;7.80;99.90;;;;;;6069307;23;95698;-76
2023/04/13 01:18:08;;;;;;;2.75;2.30;;;7.90;99.90;;;;;;6069391;23;92986;-76
2023/04/13 01:20:37;;;;;;;2.65;2.45;;;8.00;99.90;;;;;;6068304;23;94784;-75
2023/04/13 01:23:08;;;;;;;4.35;2.53;;;8.00;99.90;;;;;;6068647;23;93002;-76
2023/04/13 01:25:56;;;;;;;4.10;3.15;;;8.00;99.90;;;;;;6064079;23;95399;-76
2023/04/13 01:28:26;;;;;;;3.20;2.40;;;8.10;99.90;;;;;;6064309;23;95280;-76
2023/04/13 01:30:56;;;;;;;3.17;2.45;;;8.00;99.90;;;;;;6063883;23;92461;-76
2023/04/13 01:33:24;;;;;;;3.70;2.30;;;7.90;99.90;;;;;;6065681;23;92379;-76
2023/04/13 01:35:51;;;;;;;2.88;2.47;;;7.90;99.90;;;;;;6063405;23;95778;-76
2023/04/13 01:38:25;;;;;;;2.60;1.98;;;7.90;99.90;;;;;;6066142;23;92654;-76
2023/04/13 01:40:54;;;;;;;3.33;2.33;;;7.80;99.90;;;;;;6065705;23;92309;-76
2023/04/13 01:43:23;;;;;;;2.30;2.10;;;7.80;99.90;;;;;;6039958;23;92407;-76
2023/04/13 01:46:08;;;;;;;5.65;2.47;;;7.80;99.90;;;;;;6063495;23;97807;-76
2023/04/13 01:48:54;;;;;;;2.80;2.53;;;7.70;99.90;;;;;;6043928;23;97579;-76
2023/04/13 01:51:44;;;;;;;3.65;2.20;;;7.70;99.90;;;;;;6050831;23;92485;-76
2023/04/13 01:54:21;;;;;;;2.30;1.75;;;7.70;99.90;;;;;;6065280;23;92429;-76
2023/04/13 01:56:49;;;;;;;3.65;2.25;;;7.70;99.90;;;;;;6065103;23;94659;-76
2023/04/13 01:59:16;;;;;;;2.30;2.10;;;7.70;99.90;;;;;;6065073;23;95238;-76
2023/04/13 02:01:43;;;;;;;2.53;1.90;;;7.60;99.90;;;;;;6065448;23;92397;-76
2023/04/13 02:04:12;;;;;;;2.40;2.20;;;7.70;99.90;;;;;;6065853;23;91659;-76
2023/04/13 02:06:41;;;;;;;2.95;2.13;;;7.70;99.90;;;;;;6041388;23;95643;-76
2023/04/13 02:09:09;;;;;;;2.85;1.90;;;7.70;99.90;;;;;;6040906;23;95276;-76
2023/04/13 02:11:37;;;;;;;3.05;2.05;;;7.70;99.90;;;;;;6063937;23;94875;-76
2023/04/13 02:14:05;;;;;;;2.08;1.88;;;7.60;99.90;;;;;;6064956;23;92548;-76
2023/04/13 02:16:33;;;;;;;5.10;2.28;;;7.60;99.90;;;;;;6041035;23;95446;-76
2023/04/13 02:19:00;;;;;;;3.25;2.30;;;7.60;99.90;;;;;;6040659;23;95427;-76
2023/04/13 02:21:27;;;;;;;3.65;2.15;;;7.60;99.90;;;;;;6089824;23;92866;-76
2023/04/13 02:23:54;;;;;;;3.83;2.17;;;7.60;99.90;;;;;;6089476;23;92577;-76
2023/04/13 02:26:23;;;;;;;3.92;2.05;;;7.60;99.90;;;;;;6040564;23;95941;-76
2023/04/13 02:28:50;;;;;;;2.65;1.92;;;7.50;99.90;;;;;;6065341;23;95198;-76
2023/04/13 02:31:18;;;;;;;3.17;2.13;;;7.50;99.90;;;;;;6065227;23;92438;-76
2023/04/13 02:33:46;;;;;;;3.22;2.40;;;7.50;99.90;;;;;;6066884;23;92461;-77
2023/04/13 02:36:16;;;;;;;4.85;2.40;;;7.50;99.90;;;;;;6063120;23;98344;-77
2023/04/13 02:38:51;;;;;;;4.72;2.45;;;7.60;99.90;;;;;;6064990;23;97779;-77
2023/04/13 02:41:28;;;;;;;2.10;1.92;;;7.60;99.90;;;;;;6065056;23;92336;-77
2023/04/13 02:43:56;;;;;;;2.97;2.63;;;7.60;99.90;;;;;;6064896;23;92454;-77
2023/04/13 02:46:26;;;;;;;3.92;2.22;;;7.60;99.90;;;;;;6064633;23;94176;-76
2023/04/13 02:48:59;;;;;;;2.88;2.38;;;7.60;99.90;;;;;;6064835;23;95294;-76
2023/04/13 02:51:31;;;;;;;2.55;2.33;;;7.60;99.90;;;;;;6065363;23;92575;-76
2023/04/13 02:54:01;;;;;;;3.67;2.30;;;7.60;99.90;;;;;;6065356;23;92223;-76
2023/04/13 02:56:30;;;;;;;3.08;2.13;;;7.60;99.90;;;;;;6064397;23;94333;-76
2023/04/13 02:58:58;;;;;;;5.28;2.70;;;7.60;99.90;;;;;;6064412;23;94727;-76
2023/04/13 03:01:25;;;;;;;4.88;2.60;;;7.60;99.90;;;;;;6063688;23;94839;-76
2023/04/13 03:03:54;;;;;;;2.88;2.35;;;7.60;99.90;;;;;;6089560;23;93088;-77
2023/04/13 03:06:24;;;;;;;5.40;2.80;;;7.60;99.90;;;;;;6064579;23;95046;-76
2023/04/13 03:08:56;;;;;;;4.00;3.30;;;7.60;99.90;;;;;;6064722;23;95059;-76
2023/04/13 03:11:23;;;;;;;3.88;2.72;;;7.60;99.90;;;;;;6040965;23;92540;-77
2023/04/13 03:14:19;;;;;;;3.42;3.13;;;7.60;99.90;;;;;;6064007;23;92467;-77
2023/04/13 03:16:50;;;;;;;3.85;2.92;;;7.60;99.90;;;;;;6065009;23;95699;-76
2023/04/13 03:19:20;;;;;;;2.88;2.50;;;7.60;99.90;;;;;;6064941;23;94923;-76
2023/04/13 03:21:48;;;;;;;3.28;2.63;;;7.60;99.90;;;;;;6040884;23;92429;-76
2023/04/13 03:24:19;;;;;;;4.15;2.58;;;7.70;99.90;;;;;;6064854;23;92432;-76
2023/04/13 03:26:47;;;;;;;3.72;2.50;;;7.70;99.90;;;;;;6062738;23;98070;-76
2023/04/13 03:29:20;;;;;;;2.08;1.85;;;7.70;99.90;;;;;;6041301;23;96327;-76
2023/04/13 03:31:47;;;;;;;3.40;2.20;;;7.60;99.90;;;;;;6064952;23;92430;-76
2023/04/13 03:34:14;;;;;;;3.20;2.28;;;7.70;99.90;;;;;;6064494;23;92509;-76
2023/04/13 03:36:43;;;;;;;2.55;1.90;;;7.70;99.90;;;;;;6064542;23;95374;-76
2023/04/13 03:39:10;;;;;;;2.03;1.65;;;7.70;99.90;;;;;;6064401;23;95323;-76
2023/04/13 03:41:38;;;;;;;2.00;1.75;;;7.80;99.90;;;;;;6064745;23;92364;-77
2023/04/13 03:44:08;;;;;;;4.15;1.90;;;7.80;99.90;;;;;;6041297;23;91727;-76
2023/04/13 03:46:36;;;;;;;2.20;1.83;;;7.90;99.90;;;;;;6064374;23;95158;-76
2023/04/13 03:49:12;;;;;;;1.63;1.52;;;7.90;99.90;;;;;;6041842;23;94114;-76
2023/04/13 03:51:39;;;;;;;2.40;1.90;;;7.90;99.90;;;;;;6063480;23;94813;-76
2023/04/13 03:54:06;;;;;;;2.00;1.58;;;7.90;99.90;;;;;;6064596;23;93039;-76
2023/04/13 03:56:34;;;;;;;1.50;1.40;;;7.90;99.90;;;;;;6064513;23;95537;-76
2023/04/13 03:59:02;;;;;;;3.25;2.00;;;7.80;99.90;;;;;;6040481;23;95178;-76
2023/04/13 04:01:29;;;;;;;1.80;1.70;;;7.80;99.90;;;;;;6064632;23;92465;-76
2023/04/13 04:03:56;;;;;;;4.85;2.13;;;7.90;99.90;;;;;;6066595;23;92848;-76
2023/04/13 04:06:26;;;;;;;2.67;2.13;;;7.80;99.90;;;;;;6064034;23;95321;-76
2023/04/13 04:09:06;;;;;;;2.30;2.10;;;7.90;99.90;;;;;;6064310;23;95543;-76
2023/04/13 04:11:39;;;;;;;2.23;2.00;;;7.90;99.90;;;;;;6064820;23;92474;-76
2023/04/13 04:14:07;;;;;;;1.92;1.83;;;7.90;99.90;;;;;;6040531;23;93075;-76
2023/04/13 04:16:34;;;;;;;3.30;2.30;;;7.90;99.90;;;;;;6062975;23;97886;-76
2023/04/13 04:19:13;;;;;;;4.30;2.30;;;7.90;99.90;;;;;;6064342;23;97657;-76
2023/04/13 04:21:43;;;;;;;4.10;3.03;;;8.00;99.90;;;;;;6064949;23;92508;-76
2023/04/13 04:24:19;;;;;;;3.13;2.35;;;8.00;99.90;;;;;;6064443;23;92456;-76
2023/04/13 04:26:49;;;;;;;2.45;2.25;;;8.00;99.90;;;;;;6064571;23;95707;-76
2023/04/13 04:29:20;;;;;;;2.55;2.10;;;8.10;99.90;;;;;;6064356;23;94968;-77
2023/04/13 04:31:51;;;;;;;4.47;2.42;;;8.10;99.90;;;;;;6064527;23;92452;-76
2023/04/13 04:34:21;;;;;;;2.42;2.13;;;8.10;99.90;;;;;;6064998;23;91786;-76
2023/04/13 04:36:50;;;;;;;2.78;2.40;;;8.10;99.90;;;;;;6064335;23;93986;-76
2023/04/13 04:39:20;;;;;;;2.60;2.40;;;8.20;99.90;;;;;;6064058;23;95574;-76
2023/04/13 04:41:54;;;;;;;3.28;2.50;;;8.20;99.90;;;;;;6040641;23;94865;-76
2023/04/13 04:44:29;;;;;;;3.83;2.53;;;8.20;99.90;;;;;;6064393;23;92812;-76
2023/04/13 04:47:01;;;;;;;2.58;2.30;;;8.20;99.90;;;;;;6064393;23;95306;-76
2023/04/13 04:49:29;;;;;;;3.58;2.53;;;8.30;99.90;;;;;;6063815;23;93956;-76
2023/04/13 04:51:57;;;;;;;4.32;2.45;;;8.20;99.90;;;;;;6064367;23;92374;-76
2023/04/13 04:54:24;;;;;;;2.58;2.28;;;8.20;99.90;;;;;;6040146;23;92971;-76
2023/04/13 04:56:53;;;;;;;2.60;2.40;;;8.20;99.90;;;;;;6040087;23;95614;-76
2023/04/13 04:59:20;;;;;;;6.20;2.65;;;8.20;99.90;;;;;;6064328;23;95180;-76
2023/04/13 05:01:57;;;;;;;2.83;2.50;;;8.20;99.90;;;;;;6064787;23;92944;-76
2023/04/13 05:04:24;;;;;;;3.60;2.50;;;8.20;99.90;;;;;;6064062;23;92362;-75
2023/04/13 05:06:51;;;;;;;3.47;2.88;;;8.20;99.90;;;;;;6062410;23;97534;-75
2023/04/13 05:09:22;;;;;;;4.55;2.75;;;8.20;99.90;;;;;;6063768;23;97474;-75
2023/04/13 05:11:51;;;;;;;3.35;3.05;;;8.20;99.90;;;;;;6064283;23;92552;-75
2023/04/13 05:14:20;;;;;;;4.80;3.22;;;8.30;99.90;;;;;;6064064;23;92420;-75
2023/04/13 05:16:47;;;;;;;3.28;2.88;;;8.30;99.90;;;;;;6064217;23;95687;-75
2023/04/13 05:19:28;;;;;;;4.00;2.95;;;8.30;99.90;;;;;;6065156;23;95295;-75
2023/04/13 05:22:00;;;;;;;3.10;2.78;;;8.30;99.90;;;;;;6067785;23;92425;-74
2023/04/13 05:24:32;;;;;;;3.97;3.03;;;8.30;99.90;;;;;;6067918;23;91714;-74
2023/04/13 05:27:02;;;;;;;3.55;3.25;;;8.40;99.90;;;;;;6091398;23;95053;-74
2023/04/13 05:29:32;;;;;;;4.53;3.35;;;8.50;99.90;;;;;;6066952;23;95296;-74
2023/04/13 05:31:59;;;;;;;3.38;3.05;;;8.50;99.90;;;;;;6041739;23;94793;-74
2023/04/13 05:34:27;;;;;;;3.72;3.38;;;8.60;99.90;;;;;;6067191;23;92569;-74
2023/04/13 05:37:04;;;;;;;3.30;3.00;;;8.60;99.90;;;;;;6067407;23;95466;-74
2023/04/13 05:39:31;;;;;;;3.25;2.67;;;8.60;99.90;;;;;;6066939;23;95214;-74
2023/04/13 05:42:00;;;;;;;2.95;2.75;;;8.70;99.90;;;;;;6067344;23;92429;-74
2023/04/13 05:44:30;;;;;;;3.55;2.55;;;9.00;99.90;;;;;;6067354;23;92586;-74
2023/04/13 05:46:57;;;;;;;3.13;2.83;;;9.20;99.90;;;;;;6068728;23;93074;-74
2023/04/13 05:49:25;;;;;;;3.58;2.42;;;9.30;99.90;;;;;;6069008;23;92973;-74
2023/04/13 05:51:53;;;;;;;4.50;2.60;;;9.30;99.90;;;;;;6067021;23;92516;-74
2023/04/13 05:54:26;;;;;;;2.67;2.25;;;9.50;99.90;;;;;;6066823;23;92482;-75
2023/04/13 05:56:53;;;;;;;3.80;2.08;;;9.70;99.90;;;;;;6065420;23;98674;-74
2023/04/13 05:59:20;;;;;;;2.42;2.22;;;9.90;99.90;;;;;;6042505;23;98380;-74
2023/04/13 06:01:48;;;;;;;2.67;2.17;;;10.40;99.90;;;;;;6091709;23;92350;-74
2023/04/13 06:04:18;;;;;;;2.80;2.05;;;10.60;99.90;;;;;;6067281;23;92465;-74
2023/04/13 06:06:48;;;;;;;2.67;2.45;;;10.70;99.90;;;;;;6066889;23;95850;-74
2023/04/13 06:09:15;;;;;;;2.97;2.22;;;10.70;99.90;;;;;;6066858;23;95462;-75
2023/04/13 06:11:44;;;;;;;2.92;2.20;;;10.70;99.90;;;;;;6091324;23;92642;-74
2023/04/13 06:14:11;;;;;;;3.47;2.13;;;10.70;99.90;;;;;;6069205;23;91668;-74
2023/04/13 06:16:39;;;;;;;3.63;2.25;;;10.80;99.90;;;;;;6066553;23;95677;-74
2023/04/13 06:19:06;;;;;;;4.43;2.28;;;10.90;99.90;;;;;;6042698;23;95381;-74
2023/04/13 06:21:33;;;;;;;3.95;2.50;;;11.10;99.90;;;;;;6065366;23;94888;-75
2023/04/13 06:24:00;;;;;;;4.22;2.03;;;11.30;99.90;;;;;;6067158;23;92448;-74
2023/04/13 06:26:32;;;;;;;4.22;2.40;;;11.30;99.90;;;;;;6066353;23;95473;-75
2023/04/13 06:29:01;;;;;;;4.45;2.50;;;11.50;99.90;;;;;;6066552;23;93875;-75
2023/04/13 06:31:34;;;;;;;;;;;11.70;99.90;;;;;;6065664;23;92970;-74
2023/04/13 06:34:06;;;;;;;4.00;2.75;;;11.80;99.90;;;;;;6066928;23;92807;-74
2023/04/13 06:36:36;;;;;;;3.95;2.75;;;12.00;99.90;;;;;;6064823;23;95966;-74
2023/04/13 06:39:04;;;;;;;4.13;2.75;;;12.40;99.90;;;;;;6067134;23;92991;-74
2023/04/13 06:41:32;;;;;;;4.97;2.97;;;12.80;99.90;;;;;;6064899;23;92926;-74
2023/04/13 06:44:18;;;;;;;4.82;3.10;;;13.10;99.90;;;;;;6065446;23;92924;-74
2023/04/13 06:46:54;;;;;;;5.28;3.03;;;13.00;99.90;;;;;;6040808;23;98152;-74
2023/04/13 06:49:22;;;;;;;5.78;2.78;;;12.90;99.90;;;;;;6064515;23;96271;-74
2023/04/13 06:51:50;;;;;;;6.03;3.30;;;12.90;99.90;;;;;;6064806;23;92424;-74
2023/04/13 06:54:17;;;;;;;4.03;3.00;;;13.00;99.90;;;;;;6066827;23;92850;-74
2023/04/13 06:56:48;;;;;;;5.45;3.67;;;12.70;99.90;;;;;;6041530;23;95459;-74
2023/04/13 06:59:15;;;;;;;6.47;3.35;;;12.50;99.90;;;;;;6066578;23;92335;-74
2023/04/13 07:01:42;;;;;;;5.65;3.30;;;12.40;99.90;;;;;;6040743;23;92310;-75
2023/04/13 07:04:09;;;;;;;9.75;3.85;;;12.30;99.90;;;;;;6065486;23;91787;-74
2023/04/13 07:06:37;;;;;;;8.52;3.80;;;12.20;99.90;;;;;;6064184;23;94207;-74
2023/04/13 07:09:04;;;;;;;4.00;2.95;;;12.30;99.90;;;;;;6088880;23;95305;-74
2023/04/13 07:11:32;;;;;;;3.42;2.83;;;12.40;99.90;;;;;;6063484;23;95188;-75
2023/04/13 07:14:00;;;;;;;6.65;3.70;;;12.40;99.90;;;;;;6064909;23;92490;-74
2023/04/13 07:16:27;;;;;;;7.32;3.53;;;12.50;99.90;;;;;;6064669;23;95853;-74
2023/04/13 07:18:54;;;;;;;5.57;3.03;;;12.50;99.90;;;;;;6066561;23;93409;-74
2023/04/13 07:21:21;;;;;;;6.85;3.20;;;12.30;99.90;;;;;;6040831;23;92390;-74
2023/04/13 07:23:55;;;;;;;5.28;2.85;;;12.20;99.90;;;;;;6042485;23;92759;-74
2023/04/13 07:26:22;;;;;;;5.05;2.42;;;12.30;99.90;;;;;;6064392;23;95745;-74
2023/04/13 07:28:49;;;;;;;5.72;2.42;;;12.40;99.90;;;;;;6064902;23;95463;-74
2023/04/13 07:31:18;;;;;;;5.30;2.92;;;12.40;99.90;;;;;;6065066;23;93005;-74
2023/04/13 07:33:48;;;;;;;5.50;2.90;;;12.40;99.90;;;;;;6041451;23;92334;-74
2023/04/13 07:36:19;;;;;;;5.75;2.78;;;12.40;99.90;;;;;;6063233;23;96463;-74
2023/04/13 07:38:49;;;;;;;4.50;2.70;;;12.50;99.90;;;;;;6063968;23;97547;-74
2023/04/13 07:41:20;;;;;;;4.90;3.05;;;12.70;99.90;;;;;;6064969;23;92479;-76
2023/04/13 07:43:50;;;;;;;4.15;2.60;;;12.80;99.90;;;;;;6064656;23;92457;-76
2023/04/13 07:46:19;;;;;;;5.00;2.65;;;12.90;99.90;;;;;;6064737;23;94837;-76
2023/04/13 07:48:48;;;;;;;5.22;2.72;;;13.10;99.90;;;;;;6088527;23;92872;-76
2023/04/13 07:51:22;;;;;;;8.63;2.80;;;13.20;99.90;;;;;;6042232;23;92316;-76
2023/04/13 07:53:51;;;;;;;4.88;2.53;;;13.40;99.90;;;;;;6064855;23;91991;-77
2023/04/13 07:56:19;;;;;;;2.97;2.63;;;13.70;99.90;;;;;;6064397;23;95565;-76
2023/04/13 07:58:47;;;;;;;2.90;2.40;;;13.80;99.90;;;;;;6064207;23;95425;-76
2023/04/13 08:01:14;;;;;;;4.72;2.83;;;13.90;99.90;;;;;;6063382;23;94836;-77
2023/04/13 08:03:41;;;;;;;4.32;2.25;;;13.90;99.90;;;;;;6089143;23;92490;-76
2023/04/13 08:06:15;;;;;;;3.03;2.35;;;14.40;99.90;;;;;;6041566;23;95036;-76
2023/04/13 08:08:43;;;;;;;3.95;2.22;;;14.90;99.90;;;;;;6063971;23;95420;-76
2023/04/13 08:11:10;;;;;;;5.10;1.90;;;15.40;99.90;;;;;;6064910;23;92944;-77
2023/04/13 08:13:38;;;;;;;6.75;2.60;;;15.70;99.90;;;;;;6064106;23;92522;-77
2023/04/13 08:16:07;;;;;;;5.28;2.50;;;15.50;99.90;;;;;;6039196;23;94085;-76
2023/04/13 08:18:34;;;;;;;5.55;2.40;;;15.40;99.90;;;;;;6064883;23;95411;-77
2023/04/13 08:21:13;;;;;;;4.72;2.50;;;15.10;99.90;;;;;;6064480;23;92395;-77
2023/04/13 08:23:43;;;;;;;5.10;2.00;;;14.80;99.90;;;;;;6041032;23;92469;-77
2023/04/13 08:26:18;;;;;;;3.50;1.90;;;14.30;99.90;;;;;;6065062;23;98293;-77
2023/04/13 08:28:49;;;;;;;3.28;1.60;;;14.00;99.90;;;;;;6068813;23;97964;-77
2023/04/13 08:31:16;;;;;;;3.20;1.75;;;13.70;99.90;;;;;;6069786;23;92546;-76
2023/04/13 08:33:49;;;;;;;;;;;13.60;99.90;;;;;;6047135;23;92401;-76
2023/04/13 08:36:17;;;;;;;2.08;1.50;;;13.40;99.90;;;;;;6070597;23;95684;-77
2023/04/13 08:38:49;;;;;;;4.53;1.75;;;13.50;99.90;;;;;;6069106;23;95215;-77
2023/04/13 08:41:18;;;;;;;3.00;1.48;;;13.60;99.90;;;;;;6069466;23;92562;-76
2023/04/13 08:43:49;;;;;;;5.13;1.60;;;13.60;99.90;;;;;;6069713;23;91663;-76
2023/04/13 08:46:20;;;;;;;4.18;1.90;;;13.60;99.90;;;;;;6069405;23;95723;-77
2023/04/13 08:48:52;;;;;;;3.13;1.58;;;13.60;99.90;;;;;;6046467;23;95185;-76
2023/04/13 08:51:27;;;;;;;3.90;1.73;;;13.40;99.90;;;;;;6069153;23;94745;-75
2023/04/13 08:53:55;;;;;;;3.45;1.42;;;13.40;99.90;;;;;;6068367;23;92453;-76
2023/04/13 08:56:27;;;;;;;2.97;1.58;;;13.20;99.90;;;;;;6069343;23;95252;-76
2023/04/13 08:59:10;;;;;;;4.00;2.03;;;13.10;99.90;;;;;;6069378;23;95207;-76
2023/04/13 09:01:38;;;;;;;4.43;1.48;;;13.00;99.90;;;;;;6045025;23;92497;-76
2023/04/13 09:04:11;;;;;;;1.60;1.33;;;13.00;99.90;;;;;;6095284;23;92445;-76
2023/04/13 09:06:44;;;;;;;1.60;1.50;;;13.00;99.90;;;;;;6069041;23;95022;-76
2023/04/13 09:09:13;;;;;;;1.95;1.30;;;13.00;99.90;;;;;;6069721;23;95143;-76
2023/04/13 09:11:41;;;;;;;1.77;0.90;;;12.90;99.90;;;;;;6045004;23;92599;-76
2023/04/13 09:14:09;;;;;;;1.40;1.13;;;12.90;99.90;;;;;;6068841;23;92470;-76
2023/04/13 09:16:41;;;;;;;1.42;0.95;;;12.90;99.90;;;;;;6067447;23;97788;-76
2023/04/13 09:19:16;;;;;;;1.27;0.90;;;12.90;99.90;;;;;;6069205;23;97590;-76
2023/04/13 09:21:44;;;;;;;1.55;1.00;;;13.00;99.90;;;;;;6095496;23;92339;-76
2023/04/13 09:24:11;;;;;;;3.83;1.45;;;13.00;99.90;;;;;;6095452;23;92285;-76
2023/04/13 09:26:42;;;;;;;2.20;1.35;;;13.10;99.90;;;;;;6044617;23;96062;-76
2023/04/13 09:29:15;;;;;;;2.75;1.52;;;13.10;99.90;;;;;;6095060;23;92914;-76
2023/04/13 09:31:43;;;;;;;3.40;1.70;;;13.10;99.90;;;;;;6069663;23;92962;-76
2023/04/13 09:34:12;;;;;;;2.65;2.30;;;13.00;99.90;;;;;;6094972;23;102134;-76
2023/04/13 09:36:40;;;;;;;3.15;2.05;;;12.90;99.90;;;;;;6068663;23;95963;-76
2023/04/13 09:39:29;;;;;;;3.95;2.30;;;12.80;99.90;;;;;;6095170;23;92892;-76
2023/04/13 09:41:57;;;;;;;3.67;2.08;;;12.70;99.90;;;;;;6093507;23;94667;-76
2023/04/13 09:44:26;;;;;;;4.72;2.35;;;12.60;99.90;;;;;;6068949;23;92723;-76
2023/04/13 09:47:01;;;;;;;2.83;2.08;;;12.70;99.90;;;;;;6069711;23;93351;-76
2023/04/13 09:49:42;;;;;;;3.03;2.35;;;12.70;99.90;;;;;;6068771;23;95219;-76
2023/04/13 09:52:21;;;;;;;4.65;2.40;;;12.70;99.90;;;;;;6095058;23;92454;-76
2023/04/13 09:54:52;;;;;;;3.03;1.73;;;12.60;99.90;;;;;;6044495;23;92466;-76
2023/04/13 09:57:27;;;;;;;2.92;2.08;;;12.50;99.90;;;;;;6095014;23;93306;-76
2023/04/13 09:59:57;;;;;;;4.90;2.28;;;12.50;99.90;;;;;;6095067;23;93186;-76
2023/04/13 10:02:25;;;;;;;1.55;1.45;;;12.60;99.90;;;;;;6069122;23;92833;-76
2023/04/13 10:04:52;;;;;;;1.73;1.60;;;12.80;99.90;;;;;;6044908;23;92458;-76
2023/04/13 10:07:21;;;;;;;1.60;1.30;;;13.30;99.90;;;;;;6068155;23;95701;-76
2023/04/13 10:09:50;;;;;;;1.60;1.40;;;13.80;99.90;;;;;;6045909;23;97846;-76
2023/04/13 10:12:16;;;;;;;1.85;1.30;;;14.20;99.90;;;;;;6046443;23;92356;-76
2023/04/13 10:14:47;;;;;;;1.73;1.08;;;14.30;99.90;;;;;;6070589;23;92399;-76
2023/04/13 10:17:33;;;;;;;2.47;1.10;;;14.50;99.90;;;;;;6095909;23;93238;-76
2023/04/13 10:20:12;;;;;;;1.85;1.00;;;14.80;99.90;;;;;;6070090;23;93135;-77
2023/04/13 10:22:42;;;;;;;2.10;1.02;;;15.10;99.90;;;;;;6096460;23;92406;-77
2023/04/13 10:25:14;;;;;;;4.10;1.30;;;15.30;99.90;;;;;;6070297;23;92600;-76
2023/04/13 10:27:57;;;;;;;2.35;1.15;;;15.40;99.90;;;;;;6069632;23;95997;-76
2023/04/13 10:30:25;;;;;;;4.50;1.38;;;15.50;99.90;;;;;;6070272;23;92817;-77
2023/04/13 10:33:08;;;;;;;4.18;1.65;;;15.50;99.90;;;;;;6068162;23;95659;-76
2023/04/13 10:35:36;;;;;;;3.65;1.27;;;15.90;99.90;;;;;;6070501;23;92563;-76
2023/04/13 10:38:03;;;;;;;3.35;1.30;;;15.80;99.90;;;;;;6045431;23;94495;-77
2023/04/13 10:40:44;;;;;;;3.85;1.35;;;15.60;99.90;;;;;;6096067;23;94481;-76
2023/04/13 10:43:12;;;;;;;1.73;1.08;;;15.30;99.90;;;;;;6096447;23;93946;-77
2023/04/13 10:45:39;;;;;;;2.40;0.90;;;15.00;99.90;;;;;;6070352;23;92379;-76
2023/04/13 10:48:06;;;;;;;0.63;0.52;;;14.80;99.90;;;;;;6095688;23;92360;-76
2023/04/13 10:50:33;;;;;;;1.75;0.80;;;14.80;99.90;;;;;;6045907;23;99442;-76
2023/04/13 10:53:04;;;;;;;3.50;1.30;;;14.70;99.90;;;;;;6069753;23;92447;-76
2023/04/13 10:55:33;;;;;;;2.53;1.48;;;14.50;99.90;;;;;;6070151;23;92468;-77
2023/04/13 10:58:01;;;;;;;2.67;1.00;;;14.10;99.90;;;;;;6094165;23;95589;-76
2023/04/13 11:00:29;;;;;;;3.50;1.40;;;13.90;99.90;;;;;;6069910;23;95320;-76
2023/04/13 11:03:13;;;;;;;2.70;1.10;;;14.00;99.90;;;;;;6096045;23;92625;-76
2023/04/13 11:05:40;;;;;;;3.50;1.50;;;14.10;99.90;;;;;;6069685;23;92432;-76
2023/04/13 11:08:08;;;;;;;4.32;1.30;;;14.20;99.90;;;;;;6069767;23;93120;-77
2023/04/13 11:10:35;;;;;;;4.00;1.50;;;14.20;99.90;;;;;;6046290;23;93787;-76
2023/04/13 11:13:02;;;;;;;1.80;0.95;;;14.10;99.90;;;;;;6069982;23;92476;-77
2023/04/13 11:15:31;;;;;;;2.45;1.00;;;13.70;99.90;;;;;;6096647;23;91647;-78
2023/04/13 11:18:00;;;;;;;2.88;1.00;;;13.30;99.90;;;;;;6095658;23;93044;-78
2023/04/13 11:20:36;;;;;;;2.90;1.20;;;13.30;99.90;;;;;;6045500;23;95487;-77
2023/04/13 11:23:05;;;;;;;1.13;0.93;;;13.50;99.90;;;;;;6068499;23;94831;-77
2023/04/13 11:25:33;;;;;;;2.55;0.88;;;13.60;99.90;;;;;;6069085;23;103433;-78
2023/04/13 11:28:03;;;;;;;2.28;0.82;;;13.80;99.90;;;;;;6095254;23;93886;-77
2023/04/13 11:30:31;;;;;;;3.35;1.27;;;14.00;99.90;;;;;;6095900;23;92303;-77
2023/04/13 11:32:59;;;;;;;2.38;1.15;;;14.20;99.90;;;;;;6070233;23;92371;-77
2023/04/13 11:35:27;;;;;;;3.08;1.10;;;14.30;99.90;;;;;;6045805;23;92574;-78
2023/04/13 11:37:54;;;;;;;4.57;1.10;;;14.50;99.90;;;;;;6096038;23;93384;-78
2023/04/13 11:40:24;;;;;;;3.92;1.27;;;14.70;99.90;;;;;;6095966;23;93333;-78
2023/04/13 11:42:54;;;;;;;3.30;1.23;;;14.90;99.90;;;;;;6069609;23;92468;-78
2023/04/13 11:45:24;;;;;;;4.75;1.30;;;15.10;99.90;;;;;;6069818;23;92409;-77
2023/04/13 11:47:53;;;;;;;3.60;1.40;;;15.30;99.90;;;;;;6094178;23;96083;-78
2023/04/13 11:50:21;;;;;;;10.25;1.65;;;15.40;99.90;;;;;;6045711;23;95279;-78
2023/04/13 11:52:51;;;;;;;3.78;1.20;;;15.40;99.90;;;;;;6070403;23;92921;-78
2023/04/13 11:55:18;;;;;;;5.07;1.30;;;15.30;99.90;;;;;;6095660;23;92376;-78
2023/04/13 11:57:51;;;;;;;4.47;1.60;;;15.10;99.90;;;;;;6095891;23;93655;-78
2023/04/13 12:00:24;;;;;;;6.65;2.40;;;14.90;99.90;;;;;;6095416;23;92805;-78
2023/04/13 12:02:55;;;;;;;5.45;1.50;;;14.80;99.90;;;;;;6096145;23;92420;-78
2023/04/13 12:05:27;;;;;;;6.20;1.70;;;14.80;99.90;;;;;;6069823;23;91740;-78
2023/04/13 12:07:55;;;;;;;4.65;1.73;;;14.80;99.90;;;;;;6069417;23;98404;-78
2023/04/13 12:10:31;;;;;;;7.47;1.52;;;14.80;99.90;;;;;;6069712;23;92914;-78
2023/04/13 12:13:12;;;;;;;2.88;1.30;;;14.90;99.90;;;;;;6068416;23;94871;-78
2023/04/13 12:15:46;;;;;;;5.75;1.40;;;15.00;99.90;;;;;;6069661;23;92414;-78
2023/04/13 12:18:38;;;;;;;6.68;1.80;;;15.00;99.90;;;;;;6069402;23;95819;-78
2023/04/13 12:21:06;;;;;;;4.30;1.60;;;15.00;99.90;;;;;;6069533;23;95452;-77
2023/04/13 12:23:33;;;;;;;6.35;1.80;;;15.20;99.90;;;;;;6069481;23;92605;-78
2023/04/13 12:26:07;;;;;;;6.57;1.83;;;15.30;99.90;;;;;;6095785;23;92390;-78
2023/04/13 12:28:56;;;;;;;5.22;1.50;;;15.40;99.90;;;;;;6094879;23;93772;-78
2023/04/13 12:31:23;;;;;;;5.10;1.80;;;15.20;99.90;;;;;;6046114;23;92874;-78
2023/04/13 12:33:50;;;;;;;6.97;1.83;;;15.10;99.90;;;;;;6069941;23;92500;-78
2023/04/13 12:36:17;;;;;;;5.38;2.00;;;15.20;99.90;;;;;;6095709;23;92400;-78
2023/04/13 12:38:44;;;;;;;6.88;2.33;;;15.40;99.90;;;;;;6067983;23;95633;-78
2023/04/13 12:41:11;;;;;;;4.38;1.50;;;15.50;99.90;;;;;;6069415;23;95327;-78
2023/04/13 12:43:38;;;;;;;4.68;1.30;;;15.80;99.90;;;;;;6070242;23;92372;-78
2023/04/13 12:46:05;;;;;;;4.05;1.88;;;15.90;99.60;;;;;;6095682;23;92467;-78
2023/04/13 12:48:32;;;;;;;8.30;1.65;;;15.80;99.40;;;;;;6069225;23;93071;-78
2023/04/13 12:50:59;;;;;;;4.75;1.48;;;15.80;99.50;;;;;;6095537;23;92922;-78
2023/04/13 12:53:26;;;;;;;5.97;1.77;;;15.60;99.40;;;;;;6045616;23;93025;-78
2023/04/13 12:55:53;;;;;;;9.65;1.83;;;15.40;99.30;;;;;;6096124;23;91627;-78
2023/04/13 12:58:20;;;;;;;7.50;1.85;;;15.20;99.30;;;;;;6068945;23;96013;-78
2023/04/13 13:00:48;;;;;;;7.85;1.65;;;15.10;99.40;;;;;;6069640;23;93291;-78
2023/04/13 13:03:15;;;;;;;5.03;1.55;;;14.80;99.40;;;;;;6094419;23;94939;-78
2023/04/13 13:05:42;;;;;;;3.97;1.67;;;14.70;99.50;;;;;;6045234;23;92459;-78
2023/04/13 13:08:09;;;;;;;5.65;2.15;;;14.70;99.70;;;;;;6068880;23;95975;-78